sensor_id;sensor_type;location;lat;lon;timestamp;P1;durP1;ratioP1;P2;durP2;ratioP2
4428;SDS011;2227;47.810;8.810;2023-06-10T04:30:24;8.35;;;6.63;;
4428;SDS011;2227;47.810;8.810;2023-06-10T04:32:51;9.13;;;7.30;;
4428;SDS011;2227;47.810;8.810;2023-06-10T04:35:18;8.45;;;7.30;;
4428;SDS011;2227;47.810;8.810;2023-06-10T04:37:45;9.25;;;7.53;;
4428;SDS011;2227;47.810;8.810;2023-06-10T04:40:11;8.18;;;7.35;;
4428;SDS011;2227;47.810;8.810;2023-06-10T04:42:38;7.97;;;7.13;;
4428;SDS011;2227;47.810;8.810;2023-06-10T04:45:05;10.93;;;6.72;;
4428;SDS011;2227;47.810;8.810;2023-06-10T04:47:33;8.35;;;6.90;;
4428;SDS011;2227;47.810;8.810;2023-06-10T04:50:00;7.95;;;7.15;;
4428;SDS011;2227;47.810;8.810;2023-06-10T04:52:28;9.00;;;6.82;;
4428;SDS011;2227;47.810;8.810;2023-06-10T04:54:54;7.03;;;6.25;;
4428;SDS011;2227;47.810;8.810;2023-06-10T04:57:22;8.88;;;7.03;;
4428;SDS011;2227;47.810;8.810;2023-06-10T04:59:49;8.25;;;6.93;;
4428;SDS011;2227;47.810;8.810;2023-06-10T05:02:15;7.78;;;6.95;;
4428;SDS011;2227;47.810;8.810;2023-06-10T05:04:42;10.25;;;7.13;;
4428;SDS011;2227;47.810;8.810;2023-06-10T05:07:09;8.23;;;6.90;;
4428;SDS011;2227;47.810;8.810;2023-06-10T05:09:36;7.80;;;6.90;;
4428;SDS011;2227;47.810;8.810;2023-06-10T05:12:03;7.82;;;6.60;;
4428;SDS011;2227;47.810;8.810;2023-06-10T05:14:31;7.60;;;6.25;;
4428;SDS011;2227;47.810;8.810;2023-06-10T05:16:58;7.32;;;6.10;;
4428;SDS011;2227;47.810;8.810;2023-06-10T05:19:24;9.95;;;6.78;;
4428;SDS011;2227;47.810;8.810;2023-06-10T05:21:51;8.40;;;7.10;;
4428;SDS011;2227;47.810;8.810;2023-06-10T05:24:18;8.23;;;6.72;;
4428;SDS011;2227;47.810;8.810;2023-06-10T05:26:45;8.38;;;7.00;;
4428;SDS011;2227;47.810;8.810;2023-06-10T05:29:13;7.30;;;6.45;;
4428;SDS011;2227;47.810;8.810;2023-06-10T05:31:41;7.40;;;6.25;;
4428;SDS011;2227;47.810;8.810;2023-06-10T05:36:36;7.90;;;6.65;;
4428;SDS011;2227;47.810;8.810;2023-06-10T05:39:03;7.30;;;6.47;;
4428;SDS011;2227;47.810;8.810;2023-06-10T05:41:30;7.20;;;6.38;;
4428;SDS011;2227;47.810;8.810;2023-06-10T05:43:57;7.32;;;6.53;;
4428;SDS011;2227;47.810;8.810;2023-06-10T05:46:24;7.05;;;6.22;;
4428;SDS011;2227;47.810;8.810;2023-06-10T05:48:50;7.78;;;6.53;;
4428;SDS011;2227;47.810;8.810;2023-06-10T05:51:17;6.85;;;5.75;;
4428;SDS011;2227;47.810;8.810;2023-06-10T05:53:44;8.02;;;6.32;;
4428;SDS011;2227;47.810;8.810;2023-06-10T05:56:13;10.32;;;6.50;;
4428;SDS011;2227;47.810;8.810;2023-06-10T05:58:40;7.00;;;6.30;;
4428;SDS011;2227;47.810;8.810;2023-06-10T06:01:07;7.15;;;6.03;;
4428;SDS011;2227;47.810;8.810;2023-06-10T06:03:34;7.47;;;6.50;;
4428;SDS011;2227;47.810;8.810;2023-06-10T06:06:02;8.27;;;6.32;;
4428;SDS011;2227;47.810;8.810;2023-06-10T06:08:29;6.95;;;6.25;;
4428;SDS011;2227;47.810;8.810;2023-06-10T06:10:56;9.30;;;6.45;;
4428;SDS011;2227;47.810;8.810;2023-06-10T06:13:23;6.57;;;5.88;;
4428;SDS011;2227;47.810;8.810;2023-06-10T06:15:50;8.32;;;6.00;;
4428;SDS011;2227;47.810;8.810;2023-06-10T06:18:17;6.80;;;6.10;;
4428;SDS011;2227;47.810;8.810;2023-06-10T06:20:45;7.78;;;6.00;;
4428;SDS011;2227;47.810;8.810;2023-06-10T06:23:11;7.45;;;6.30;;
4428;SDS011;2227;47.810;8.810;2023-06-10T06:25:38;6.75;;;5.45;;
4428;SDS011;2227;47.810;8.810;2023-06-10T06:28:06;8.80;;;6.13;;
4428;SDS011;2227;47.810;8.810;2023-06-10T06:30:33;7.88;;;5.68;;
4428;SDS011;2227;47.810;8.810;2023-06-10T06:33:00;7.25;;;5.97;;
4428;SDS011;2227;47.810;8.810;2023-06-10T06:35:27;7.85;;;5.95;;
4428;SDS011;2227;47.810;8.810;2023-06-10T06:37:56;7.28;;;5.90;;
4428;SDS011;2227;47.810;8.810;2023-06-10T06:40:25;6.60;;;5.85;;
4428;SDS011;2227;47.810;8.810;2023-06-10T06:42:51;7.53;;;5.88;;
4428;SDS011;2227;47.810;8.810;2023-06-10T06:45:18;6.90;;;5.70;;
4428;SDS011;2227;47.810;8.810;2023-06-10T06:47:45;7.25;;;5.90;;
4428;SDS011;2227;47.810;8.810;2023-06-10T06:50:12;7.97;;;5.80;;
4428;SDS011;2227;47.810;8.810;2023-06-10T06:52:39;7.63;;;6.18;;
4428;SDS011;2227;47.810;8.810;2023-06-10T06:55:06;6.75;;;5.75;;
4428;SDS011;2227;47.810;8.810;2023-06-10T06:57:33;7.78;;;6.07;;
4428;SDS011;2227;47.810;8.810;2023-06-10T07:00:00;6.53;;;5.82;;
4428;SDS011;2227;47.810;8.810;2023-06-10T07:02:27;6.13;;;5.32;;
4428;SDS011;2227;47.810;8.810;2023-06-10T07:04:53;6.88;;;5.53;;
4428;SDS011;2227;47.810;8.810;2023-06-10T07:07:22;7.18;;;6.07;;
4428;SDS011;2227;47.810;8.810;2023-06-10T07:09:49;7.03;;;5.95;;
4428;SDS011;2227;47.810;8.810;2023-06-10T07:12:16;6.35;;;5.65;;
4428;SDS011;2227;47.810;8.810;2023-06-10T07:14:44;7.10;;;5.53;;
4428;SDS011;2227;47.810;8.810;2023-06-10T07:17:10;7.15;;;6.32;;
4428;SDS011;2227;47.810;8.810;2023-06-10T07:19:37;6.55;;;5.85;;
4428;SDS011;2227;47.810;8.810;2023-06-10T07:22:04;7.28;;;6.20;;
4428;SDS011;2227;47.810;8.810;2023-06-10T07:24:31;6.50;;;5.72;;
4428;SDS011;2227;47.810;8.810;2023-06-10T07:26:58;7.47;;;5.75;;
4428;SDS011;2227;47.810;8.810;2023-06-10T07:29:24;7.28;;;5.97;;
4428;SDS011;2227;47.810;8.810;2023-06-10T07:31:51;8.02;;;5.70;;
4428;SDS011;2227;47.810;8.810;2023-06-10T07:34:19;8.07;;;6.22;;
4428;SDS011;2227;47.810;8.810;2023-06-10T07:36:46;6.45;;;5.65;;
4428;SDS011;2227;47.810;8.810;2023-06-10T07:39:12;5.97;;;5.38;;
4428;SDS011;2227;47.810;8.810;2023-06-10T07:41:39;7.65;;;6.32;;
4428;SDS011;2227;47.810;8.810;2023-06-10T07:44:06;7.72;;;6.45;;
4428;SDS011;2227;47.810;8.810;2023-06-10T07:46:32;7.18;;;6.03;;
4428;SDS011;2227;47.810;8.810;2023-06-10T07:48:59;7.55;;;5.72;;
4428;SDS011;2227;47.810;8.810;2023-06-10T07:51:26;7.50;;;6.40;;
4428;SDS011;2227;47.810;8.810;2023-06-10T07:53:52;6.90;;;5.78;;
4428;SDS011;2227;47.810;8.810;2023-06-10T07:56:19;7.30;;;6.00;;
4428;SDS011;2227;47.810;8.810;2023-06-10T07:58:47;6.72;;;5.68;;
4428;SDS011;2227;47.810;8.810;2023-06-10T08:01:14;6.05;;;5.40;;
4428;SDS011;2227;47.810;8.810;2023-06-10T08:03:42;6.28;;;5.05;;
4428;SDS011;2227;47.810;8.810;2023-06-10T08:06:09;6.32;;;5.47;;
4428;SDS011;2227;47.810;8.810;2023-06-10T08:08:37;6.85;;;6.15;;
4428;SDS011;2227;47.810;8.810;2023-06-10T08:11:10;6.97;;;6.18;;
4428;SDS011;2227;47.810;8.810;2023-06-10T08:13:37;6.95;;;5.63;;
4428;SDS011;2227;47.810;8.810;2023-06-10T08:16:04;6.70;;;6.00;;
4428;SDS011;2227;47.810;8.810;2023-06-10T08:18:31;7.00;;;5.25;;
4428;SDS011;2227;47.810;8.810;2023-06-10T08:20:57;6.70;;;5.60;;
4428;SDS011;2227;47.810;8.810;2023-06-10T08:23:24;6.95;;;5.80;;
4428;SDS011;2227;47.810;8.810;2023-06-10T08:25:51;6.65;;;5.95;;
4428;SDS011;2227;47.810;8.810;2023-06-10T08:28:18;7.10;;;6.40;;
4428;SDS011;2227;47.810;8.810;2023-06-10T08:30:45;6.60;;;5.35;;
4428;SDS011;2227;47.810;8.810;2023-06-10T08:33:11;8.70;;;6.00;;
4428;SDS011;2227;47.810;8.810;2023-06-10T08:35:38;6.50;;;5.82;;
4428;SDS011;2227;47.810;8.810;2023-06-10T08:38:05;7.20;;;5.78;;
4428;SDS011;2227;47.810;8.810;2023-06-10T08:40:32;6.53;;;5.25;;
4428;SDS011;2227;47.810;8.810;2023-06-10T08:45:31;5.72;;;5.22;;
4428;SDS011;2227;47.810;8.810;2023-06-10T08:48:05;7.05;;;6.05;;
4428;SDS011;2227;47.810;8.810;2023-06-10T08:50:36;5.85;;;5.25;;
4428;SDS011;2227;47.810;8.810;2023-06-10T08:53:05;5.85;;;5.15;;
4428;SDS011;2227;47.810;8.810;2023-06-10T08:55:33;7.95;;;6.13;;
4428;SDS011;2227;47.810;8.810;2023-06-10T08:58:04;7.10;;;6.13;;
4428;SDS011;2227;47.810;8.810;2023-06-10T09:00:32;8.65;;;5.20;;
4428;SDS011;2227;47.810;8.810;2023-06-10T09:03:00;7.20;;;6.28;;
4428;SDS011;2227;47.810;8.810;2023-06-10T09:05:33;6.93;;;5.57;;
4428;SDS011;2227;47.810;8.810;2023-06-10T09:08:00;6.32;;;5.53;;
4428;SDS011;2227;47.810;8.810;2023-06-10T09:10:27;8.93;;;5.65;;
4428;SDS011;2227;47.810;8.810;2023-06-10T09:12:55;6.28;;;5.68;;
4428;SDS011;2227;47.810;8.810;2023-06-10T09:15:22;6.55;;;5.82;;
4428;SDS011;2227;47.810;8.810;2023-06-10T09:17:49;7.03;;;5.47;;
4428;SDS011;2227;47.810;8.810;2023-06-10T09:20:17;6.10;;;5.13;;
4428;SDS011;2227;47.810;8.810;2023-06-10T09:22:45;6.32;;;5.20;;
4428;SDS011;2227;47.810;8.810;2023-06-10T09:25:12;6.10;;;5.50;;
4428;SDS011;2227;47.810;8.810;2023-06-10T09:27:46;6.60;;;5.82;;
4428;SDS011;2227;47.810;8.810;2023-06-10T09:30:23;6.13;;;5.47;;
4428;SDS011;2227;47.810;8.810;2023-06-10T09:32:55;7.00;;;5.82;;
4428;SDS011;2227;47.810;8.810;2023-06-10T09:35:23;5.90;;;5.30;;
4428;SDS011;2227;47.810;8.810;2023-06-10T09:37:57;6.18;;;5.05;;
4428;SDS011;2227;47.810;8.810;2023-06-10T09:40:26;5.97;;;5.20;;
4428;SDS011;2227;47.810;8.810;2023-06-10T09:42:55;6.22;;;5.00;;
4428;SDS011;2227;47.810;8.810;2023-06-10T09:45:22;5.97;;;4.70;;
4428;SDS011;2227;47.810;8.810;2023-06-10T09:47:53;6.00;;;4.80;;
4428;SDS011;2227;47.810;8.810;2023-06-10T09:50:20;5.93;;;5.00;;
4428;SDS011;2227;47.810;8.810;2023-06-10T09:52:47;5.45;;;4.68;;
4428;SDS011;2227;47.810;8.810;2023-06-10T09:55:14;5.45;;;4.55;;
4428;SDS011;2227;47.810;8.810;2023-06-10T09:57:42;5.15;;;4.60;;
4428;SDS011;2227;47.810;8.810;2023-06-10T10:00:11;6.28;;;5.00;;
4428;SDS011;2227;47.810;8.810;2023-06-10T10:02:48;5.55;;;4.68;;
4428;SDS011;2227;47.810;8.810;2023-06-10T10:05:17;5.15;;;4.65;;
4428;SDS011;2227;47.810;8.810;2023-06-10T10:07:45;5.40;;;4.90;;
4428;SDS011;2227;47.810;8.810;2023-06-10T10:10:13;5.05;;;4.55;;
4428;SDS011;2227;47.810;8.810;2023-06-10T10:12:42;5.70;;;4.45;;
4428;SDS011;2227;47.810;8.810;2023-06-10T10:15:12;5.57;;;4.32;;
4428;SDS011;2227;47.810;8.810;2023-06-10T10:17:49;7.15;;;4.78;;
4428;SDS011;2227;47.810;8.810;2023-06-10T10:20:24;5.80;;;4.68;;
4428;SDS011;2227;47.810;8.810;2023-06-10T10:22:56;5.10;;;4.47;;
4428;SDS011;2227;47.810;8.810;2023-06-10T10:25:28;6.55;;;4.80;;
4428;SDS011;2227;47.810;8.810;2023-06-10T10:28:10;5.45;;;4.35;;
4428;SDS011;2227;47.810;8.810;2023-06-10T10:30:59;5.82;;;4.97;;
4428;SDS011;2227;47.810;8.810;2023-06-10T10:33:35;6.15;;;4.70;;
4428;SDS011;2227;47.810;8.810;2023-06-10T10:36:07;5.43;;;4.70;;
4428;SDS011;2227;47.810;8.810;2023-06-10T10:38:34;5.85;;;5.00;;
4428;SDS011;2227;47.810;8.810;2023-06-10T10:41:02;5.15;;;4.65;;
4428;SDS011;2227;47.810;8.810;2023-06-10T10:43:30;4.93;;;4.43;;
4428;SDS011;2227;47.810;8.810;2023-06-10T10:45:59;6.22;;;4.43;;
4428;SDS011;2227;47.810;8.810;2023-06-10T10:48:26;6.47;;;4.90;;
4428;SDS011;2227;47.810;8.810;2023-06-10T10:50:59;5.75;;;4.38;;
4428;SDS011;2227;47.810;8.810;2023-06-10T10:53:26;5.55;;;4.57;;
4428;SDS011;2227;47.810;8.810;2023-06-10T10:58:26;5.07;;;4.57;;
4428;SDS011;2227;47.810;8.810;2023-06-10T11:00:53;5.05;;;4.25;;
4428;SDS011;2227;47.810;8.810;2023-06-10T11:03:19;5.10;;;4.60;;
4428;SDS011;2227;47.810;8.810;2023-06-10T11:05:47;5.57;;;4.57;;
4428;SDS011;2227;47.810;8.810;2023-06-10T11:08:45;5.05;;;4.47;;
4428;SDS011;2227;47.810;8.810;2023-06-10T11:11:20;5.25;;;4.00;;
4428;SDS011;2227;47.810;8.810;2023-06-10T11:14:13;4.75;;;4.25;;
4428;SDS011;2227;47.810;8.810;2023-06-10T11:16:39;5.55;;;4.80;;
4428;SDS011;2227;47.810;8.810;2023-06-10T11:19:08;5.03;;;4.53;;
4428;SDS011;2227;47.810;8.810;2023-06-10T11:24:28;5.40;;;4.38;;
4428;SDS011;2227;47.810;8.810;2023-06-10T11:29:58;6.25;;;4.80;;
4428;SDS011;2227;47.810;8.810;2023-06-10T11:32:30;6.20;;;4.35;;
4428;SDS011;2227;47.810;8.810;2023-06-10T11:34:58;6.43;;;4.38;;
4428;SDS011;2227;47.810;8.810;2023-06-10T11:37:26;5.05;;;4.20;;
4428;SDS011;2227;47.810;8.810;2023-06-10T11:39:54;4.93;;;4.28;;
4428;SDS011;2227;47.810;8.810;2023-06-10T11:42:22;4.95;;;4.45;;
4428;SDS011;2227;47.810;8.810;2023-06-10T11:44:49;4.63;;;4.13;;
4428;SDS011;2227;47.810;8.810;2023-06-10T11:47:17;4.93;;;4.22;;
4428;SDS011;2227;47.810;8.810;2023-06-10T11:49:45;4.45;;;4.00;;
4428;SDS011;2227;47.810;8.810;2023-06-10T11:52:30;4.30;;;3.67;;
4428;SDS011;2227;47.810;8.810;2023-06-10T11:55:05;4.97;;;4.20;;
4428;SDS011;2227;47.810;8.810;2023-06-10T11:57:36;6.22;;;4.50;;
4428;SDS011;2227;47.810;8.810;2023-06-10T12:00:06;4.85;;;4.25;;
4428;SDS011;2227;47.810;8.810;2023-06-10T12:02:33;4.82;;;4.30;;
4428;SDS011;2227;47.810;8.810;2023-06-10T12:05:11;5.55;;;4.55;;
4428;SDS011;2227;47.810;8.810;2023-06-10T12:07:40;5.70;;;4.15;;
4428;SDS011;2227;47.810;8.810;2023-06-10T12:10:07;4.90;;;4.32;;
4428;SDS011;2227;47.810;8.810;2023-06-10T12:12:51;5.90;;;3.97;;
4428;SDS011;2227;47.810;8.810;2023-06-10T12:15:24;4.63;;;3.95;;
4428;SDS011;2227;47.810;8.810;2023-06-10T12:17:51;4.22;;;3.55;;
4428;SDS011;2227;47.810;8.810;2023-06-10T12:20:29;5.10;;;3.83;;
4428;SDS011;2227;47.810;8.810;2023-06-10T12:23:00;5.13;;;4.00;;
4428;SDS011;2227;47.810;8.810;2023-06-10T12:25:34;5.13;;;3.80;;
4428;SDS011;2227;47.810;8.810;2023-06-10T12:28:05;4.95;;;4.20;;
4428;SDS011;2227;47.810;8.810;2023-06-10T12:30:36;5.38;;;4.22;;
4428;SDS011;2227;47.810;8.810;2023-06-10T12:33:03;4.53;;;4.05;;
4428;SDS011;2227;47.810;8.810;2023-06-10T12:35:29;4.70;;;4.00;;
4428;SDS011;2227;47.810;8.810;2023-06-10T12:37:58;5.15;;;4.00;;
4428;SDS011;2227;47.810;8.810;2023-06-10T12:40:32;5.00;;;4.00;;
4428;SDS011;2227;47.810;8.810;2023-06-10T12:42:59;6.20;;;4.10;;
4428;SDS011;2227;47.810;8.810;2023-06-10T12:45:27;4.40;;;3.47;;
4428;SDS011;2227;47.810;8.810;2023-06-10T12:50:36;4.93;;;3.95;;
4428;SDS011;2227;47.810;8.810;2023-06-10T12:53:07;6.20;;;4.25;;
4428;SDS011;2227;47.810;8.810;2023-06-10T12:55:34;4.75;;;3.50;;
4428;SDS011;2227;47.810;8.810;2023-06-10T12:58:02;4.90;;;3.78;;
4428;SDS011;2227;47.810;8.810;2023-06-10T13:00:29;4.43;;;3.75;;
4428;SDS011;2227;47.810;8.810;2023-06-10T13:02:57;4.82;;;3.80;;
4428;SDS011;2227;47.810;8.810;2023-06-10T13:05:27;4.38;;;3.47;;
4428;SDS011;2227;47.810;8.810;2023-06-10T13:07:54;4.75;;;3.20;;
4428;SDS011;2227;47.810;8.810;2023-06-10T13:10:21;4.63;;;2.90;;
4428;SDS011;2227;47.810;8.810;2023-06-10T13:12:51;4.07;;;3.15;;
4428;SDS011;2227;47.810;8.810;2023-06-10T13:15:18;4.45;;;3.50;;
4428;SDS011;2227;47.810;8.810;2023-06-10T13:17:45;5.15;;;3.28;;
4428;SDS011;2227;47.810;8.810;2023-06-10T13:20:16;4.07;;;3.30;;
4428;SDS011;2227;47.810;8.810;2023-06-10T13:22:43;3.63;;;3.17;;
4428;SDS011;2227;47.810;8.810;2023-06-10T13:25:11;4.28;;;3.17;;
4428;SDS011;2227;47.810;8.810;2023-06-10T13:27:38;3.92;;;3.50;;
4428;SDS011;2227;47.810;8.810;2023-06-10T13:30:09;4.80;;;3.25;;
4428;SDS011;2227;47.810;8.810;2023-06-10T13:32:37;4.82;;;2.92;;
4428;SDS011;2227;47.810;8.810;2023-06-10T13:35:04;4.80;;;3.10;;
4428;SDS011;2227;47.810;8.810;2023-06-10T13:37:31;4.15;;;2.67;;
4428;SDS011;2227;47.810;8.810;2023-06-10T13:40:00;4.45;;;2.95;;
4428;SDS011;2227;47.810;8.810;2023-06-10T13:42:27;4.43;;;2.90;;
4428;SDS011;2227;47.810;8.810;2023-06-10T13:44:55;4.32;;;2.63;;
4428;SDS011;2227;47.810;8.810;2023-06-10T13:47:22;4.65;;;2.70;;
4428;SDS011;2227;47.810;8.810;2023-06-10T13:49:50;3.05;;;2.53;;
4428;SDS011;2227;47.810;8.810;2023-06-10T13:52:17;4.70;;;3.15;;
4428;SDS011;2227;47.810;8.810;2023-06-10T13:54:44;4.55;;;3.10;;
4428;SDS011;2227;47.810;8.810;2023-06-10T13:57:11;3.92;;;2.63;;
4428;SDS011;2227;47.810;8.810;2023-06-10T13:59:37;3.78;;;2.90;;
4428;SDS011;2227;47.810;8.810;2023-06-10T14:02:04;4.40;;;2.80;;
4428;SDS011;2227;47.810;8.810;2023-06-10T14:04:31;3.42;;;2.65;;
4428;SDS011;2227;47.810;8.810;2023-06-10T14:06:58;3.63;;;2.65;;
4428;SDS011;2227;47.810;8.810;2023-06-10T14:09:25;4.55;;;2.88;;
4428;SDS011;2227;47.810;8.810;2023-06-10T14:11:52;3.35;;;2.60;;
4428;SDS011;2227;47.810;8.810;2023-06-10T14:14:20;4.40;;;2.70;;
4428;SDS011;2227;47.810;8.810;2023-06-10T14:16:47;5.57;;;2.63;;
4428;SDS011;2227;47.810;8.810;2023-06-10T14:19:13;3.85;;;2.65;;
4428;SDS011;2227;47.810;8.810;2023-06-10T14:21:40;3.97;;;2.60;;
4428;SDS011;2227;47.810;8.810;2023-06-10T14:24:07;3.70;;;2.50;;
4428;SDS011;2227;47.810;8.810;2023-06-10T14:26:34;3.10;;;2.10;;
4428;SDS011;2227;47.810;8.810;2023-06-10T14:29:01;3.67;;;2.50;;
4428;SDS011;2227;47.810;8.810;2023-06-10T14:31:28;3.05;;;2.35;;
4428;SDS011;2227;47.810;8.810;2023-06-10T14:33:55;2.85;;;2.17;;
4428;SDS011;2227;47.810;8.810;2023-06-10T14:36:22;2.92;;;2.05;;
4428;SDS011;2227;47.810;8.810;2023-06-10T14:38:49;3.78;;;2.13;;
4428;SDS011;2227;47.810;8.810;2023-06-10T14:41:16;3.85;;;2.20;;
4428;SDS011;2227;47.810;8.810;2023-06-10T14:43:43;3.50;;;2.10;;
4428;SDS011;2227;47.810;8.810;2023-06-10T14:46:09;3.45;;;2.17;;
4428;SDS011;2227;47.810;8.810;2023-06-10T14:48:36;4.18;;;2.13;;
4428;SDS011;2227;47.810;8.810;2023-06-10T14:51:03;3.33;;;2.20;;
4428;SDS011;2227;47.810;8.810;2023-06-10T14:53:30;4.03;;;2.28;;
4428;SDS011;2227;47.810;8.810;2023-06-10T14:55:56;3.35;;;2.10;;
4428;SDS011;2227;47.810;8.810;2023-06-10T14:58:23;2.55;;;1.80;;
4428;SDS011;2227;47.810;8.810;2023-06-10T15:00:50;3.35;;;2.28;;
4428;SDS011;2227;47.810;8.810;2023-06-10T15:03:17;2.92;;;1.95;;
4428;SDS011;2227;47.810;8.810;2023-06-10T15:05:44;4.10;;;2.50;;
4428;SDS011;2227;47.810;8.810;2023-06-10T15:08:10;3.78;;;2.45;;
4428;SDS011;2227;47.810;8.810;2023-06-10T15:10:37;3.00;;;2.10;;
4428;SDS011;2227;47.810;8.810;2023-06-10T15:13:04;3.03;;;2.00;;
4428;SDS011;2227;47.810;8.810;2023-06-10T15:15:31;3.03;;;2.20;;
4428;SDS011;2227;47.810;8.810;2023-06-10T15:17:57;2.83;;;2.00;;
4428;SDS011;2227;47.810;8.810;2023-06-10T15:20:24;2.97;;;1.80;;
4428;SDS011;2227;47.810;8.810;2023-06-10T15:22:51;2.90;;;1.65;;
4428;SDS011;2227;47.810;8.810;2023-06-10T15:25:19;3.50;;;1.85;;
4428;SDS011;2227;47.810;8.810;2023-06-10T15:27:57;2.30;;;1.73;;
4428;SDS011;2227;47.810;8.810;2023-06-10T15:30:23;2.72;;;1.90;;
4428;SDS011;2227;47.810;8.810;2023-06-10T15:32:51;3.20;;;2.10;;
4428;SDS011;2227;47.810;8.810;2023-06-10T15:35:18;3.58;;;2.00;;
4428;SDS011;2227;47.810;8.810;2023-06-10T15:37:45;2.90;;;2.03;;
4428;SDS011;2227;47.810;8.810;2023-06-10T15:40:12;2.42;;;1.95;;
4428;SDS011;2227;47.810;8.810;2023-06-10T15:42:38;3.08;;;1.90;;
4428;SDS011;2227;47.810;8.810;2023-06-10T15:45:05;4.10;;;2.03;;
4428;SDS011;2227;47.810;8.810;2023-06-10T15:47:33;3.90;;;2.17;;
4428;SDS011;2227;47.810;8.810;2023-06-10T15:50:00;3.28;;;1.90;;
4428;SDS011;2227;47.810;8.810;2023-06-10T15:52:27;3.95;;;2.15;;
4428;SDS011;2227;47.810;8.810;2023-06-10T15:54:53;2.38;;;1.70;;
4428;SDS011;2227;47.810;8.810;2023-06-10T15:57:20;2.42;;;1.85;;
4428;SDS011;2227;47.810;8.810;2023-06-10T15:59:51;3.92;;;2.30;;
4428;SDS011;2227;47.810;8.810;2023-06-10T16:02:18;3.53;;;2.50;;
4428;SDS011;2227;47.810;8.810;2023-06-10T16:04:45;3.70;;;2.58;;
4428;SDS011;2227;47.810;8.810;2023-06-10T16:07:12;2.83;;;2.20;;
4428;SDS011;2227;47.810;8.810;2023-06-10T16:09:38;3.17;;;2.20;;
4428;SDS011;2227;47.810;8.810;2023-06-10T16:12:05;3.17;;;2.10;;
4428;SDS011;2227;47.810;8.810;2023-06-10T16:14:32;3.38;;;2.55;;
4428;SDS011;2227;47.810;8.810;2023-06-10T16:16:59;4.13;;;2.40;;
4428;SDS011;2227;47.810;8.810;2023-06-10T16:19:27;3.10;;;2.10;;
4428;SDS011;2227;47.810;8.810;2023-06-10T16:21:53;2.65;;;1.90;;
4428;SDS011;2227;47.810;8.810;2023-06-10T16:24:20;2.58;;;2.05;;
4428;SDS011;2227;47.810;8.810;2023-06-10T16:26:47;3.72;;;2.38;;
4428;SDS011;2227;47.810;8.810;2023-06-10T16:29:15;3.03;;;1.98;;
4428;SDS011;2227;47.810;8.810;2023-06-10T16:31:42;3.17;;;1.85;;
4428;SDS011;2227;47.810;8.810;2023-06-10T16:34:09;3.22;;;2.22;;
4428;SDS011;2227;47.810;8.810;2023-06-10T16:36:36;3.15;;;2.03;;
4428;SDS011;2227;47.810;8.810;2023-06-10T16:39:02;3.00;;;1.92;;
4428;SDS011;2227;47.810;8.810;2023-06-10T16:41:29;2.88;;;1.90;;
4428;SDS011;2227;47.810;8.810;2023-06-10T16:43:56;3.67;;;2.70;;
4428;SDS011;2227;47.810;8.810;2023-06-10T16:46:25;3.28;;;2.22;;
4428;SDS011;2227;47.810;8.810;2023-06-10T16:48:52;3.85;;;2.40;;
4428;SDS011;2227;47.810;8.810;2023-06-10T16:51:18;5.68;;;2.80;;
4428;SDS011;2227;47.810;8.810;2023-06-10T16:53:45;4.25;;;2.30;;
4428;SDS011;2227;47.810;8.810;2023-06-10T16:56:12;3.50;;;2.47;;
4428;SDS011;2227;47.810;8.810;2023-06-10T16:58:39;3.55;;;2.78;;
4428;SDS011;2227;47.810;8.810;2023-06-10T17:01:07;5.93;;;2.60;;
4428;SDS011;2227;47.810;8.810;2023-06-10T17:03:35;4.18;;;2.80;;
4428;SDS011;2227;47.810;8.810;2023-06-10T17:06:01;4.63;;;3.00;;
4428;SDS011;2227;47.810;8.810;2023-06-10T17:08:28;4.18;;;3.10;;
4428;SDS011;2227;47.810;8.810;2023-06-10T17:10:55;4.35;;;3.20;;
4428;SDS011;2227;47.810;8.810;2023-06-10T17:13:22;5.30;;;3.33;;
4428;SDS011;2227;47.810;8.810;2023-06-10T17:15:48;4.88;;;3.83;;
4428;SDS011;2227;47.810;8.810;2023-06-10T17:18:15;5.95;;;4.35;;
4428;SDS011;2227;47.810;8.810;2023-06-10T17:20:44;4.22;;;3.35;;
4428;SDS011;2227;47.810;8.810;2023-06-10T17:23:11;5.07;;;3.63;;
4428;SDS011;2227;47.810;8.810;2023-06-10T17:25:37;4.95;;;3.50;;
4428;SDS011;2227;47.810;8.810;2023-06-10T17:28:04;4.85;;;3.72;;
4428;SDS011;2227;47.810;8.810;2023-06-10T17:30:31;4.28;;;3.20;;
4428;SDS011;2227;47.810;8.810;2023-06-10T17:32:58;4.32;;;3.67;;
4428;SDS011;2227;47.810;8.810;2023-06-10T17:35:24;5.80;;;4.43;;
4428;SDS011;2227;47.810;8.810;2023-06-10T17:37:51;4.53;;;3.72;;
4428;SDS011;2227;47.810;8.810;2023-06-10T17:40:18;4.78;;;3.67;;
4428;SDS011;2227;47.810;8.810;2023-06-10T17:42:44;5.82;;;4.40;;
4428;SDS011;2227;47.810;8.810;2023-06-10T17:45:12;5.40;;;3.95;;
4428;SDS011;2227;47.810;8.810;2023-06-10T17:47:39;4.88;;;3.95;;
4428;SDS011;2227;47.810;8.810;2023-06-10T17:50:06;10.63;;;5.03;;
4428;SDS011;2227;47.810;8.810;2023-06-10T17:52:33;4.22;;;3.70;;
4428;SDS011;2227;47.810;8.810;2023-06-10T17:55:00;4.47;;;3.65;;
4428;SDS011;2227;47.810;8.810;2023-06-10T17:57:26;4.40;;;3.50;;
4428;SDS011;2227;47.810;8.810;2023-06-10T17:59:54;4.35;;;3.65;;
4428;SDS011;2227;47.810;8.810;2023-06-10T18:02:21;4.50;;;3.75;;
4428;SDS011;2227;47.810;8.810;2023-06-10T18:04:48;4.93;;;3.83;;
4428;SDS011;2227;47.810;8.810;2023-06-10T18:07:15;5.35;;;3.92;;
4428;SDS011;2227;47.810;8.810;2023-06-10T18:09:41;4.60;;;3.65;;
4428;SDS011;2227;47.810;8.810;2023-06-10T18:12:08;4.15;;;3.47;;
4428;SDS011;2227;47.810;8.810;2023-06-10T18:14:36;4.13;;;3.47;;
4428;SDS011;2227;47.810;8.810;2023-06-10T18:17:04;4.50;;;3.80;;
4428;SDS011;2227;47.810;8.810;2023-06-10T18:19:31;4.57;;;3.83;;
4428;SDS011;2227;47.810;8.810;2023-06-10T18:21:58;6.63;;;3.50;;
4428;SDS011;2227;47.810;8.810;2023-06-10T18:24:24;5.90;;;3.92;;
4428;SDS011;2227;47.810;8.810;2023-06-10T18:26:51;7.88;;;4.05;;
4428;SDS011;2227;47.810;8.810;2023-06-10T18:29:18;5.38;;;4.05;;
4428;SDS011;2227;47.810;8.810;2023-06-10T18:31:44;6.03;;;3.92;;
4428;SDS011;2227;47.810;8.810;2023-06-10T18:34:11;5.57;;;3.95;;
4428;SDS011;2227;47.810;8.810;2023-06-10T18:36:38;4.55;;;3.88;;
4428;SDS011;2227;47.810;8.810;2023-06-10T18:39:05;4.38;;;3.75;;
4428;SDS011;2227;47.810;8.810;2023-06-10T18:41:32;4.70;;;3.70;;
4428;SDS011;2227;47.810;8.810;2023-06-10T18:43:59;4.97;;;3.80;;
4428;SDS011;2227;47.810;8.810;2023-06-10T18:46:26;6.60;;;3.97;;
4428;SDS011;2227;47.810;8.810;2023-06-10T18:48:53;10.40;;;3.90;;
4428;SDS011;2227;47.810;8.810;2023-06-10T18:51:20;6.63;;;3.75;;
4428;SDS011;2227;47.810;8.810;2023-06-10T18:53:48;5.68;;;3.80;;
4428;SDS011;2227;47.810;8.810;2023-06-10T18:56:15;6.28;;;3.78;;
4428;SDS011;2227;47.810;8.810;2023-06-10T18:58:42;5.63;;;3.35;;
4428;SDS011;2227;47.810;8.810;2023-06-10T19:01:15;4.88;;;3.78;;
4428;SDS011;2227;47.810;8.810;2023-06-10T19:03:42;5.78;;;3.58;;
4428;SDS011;2227;47.810;8.810;2023-06-10T19:06:09;7.68;;;4.13;;
4428;SDS011;2227;47.810;8.810;2023-06-10T19:08:36;4.30;;;3.40;;
4428;SDS011;2227;47.810;8.810;2023-06-10T19:11:03;3.92;;;3.08;;
4428;SDS011;2227;47.810;8.810;2023-06-10T19:13:31;5.05;;;3.40;;
4428;SDS011;2227;47.810;8.810;2023-06-10T19:15:58;5.38;;;3.40;;
4428;SDS011;2227;47.810;8.810;2023-06-10T19:18:25;4.95;;;3.53;;
4428;SDS011;2227;47.810;8.810;2023-06-10T19:20:52;5.72;;;3.88;;
4428;SDS011;2227;47.810;8.810;2023-06-10T19:23:18;4.78;;;3.55;;
4428;SDS011;2227;47.810;8.810;2023-06-10T19:25:45;5.57;;;3.83;;
4428;SDS011;2227;47.810;8.810;2023-06-10T19:28:12;5.30;;;3.88;;
4428;SDS011;2227;47.810;8.810;2023-06-10T19:30:39;4.68;;;4.00;;
4428;SDS011;2227;47.810;8.810;2023-06-10T19:33:05;4.88;;;4.10;;
4428;SDS011;2227;47.810;8.810;2023-06-10T19:35:36;4.63;;;3.92;;
4428;SDS011;2227;47.810;8.810;2023-06-10T19:38:03;4.50;;;3.45;;
4428;SDS011;2227;47.810;8.810;2023-06-10T19:40:30;4.93;;;3.53;;
4428;SDS011;2227;47.810;8.810;2023-06-10T19:42:57;4.30;;;3.25;;
4428;SDS011;2227;47.810;8.810;2023-06-10T19:45:24;4.57;;;3.53;;
4428;SDS011;2227;47.810;8.810;2023-06-10T19:47:50;5.03;;;3.50;;
4428;SDS011;2227;47.810;8.810;2023-06-10T19:50:17;4.65;;;3.42;;
4428;SDS011;2227;47.810;8.810;2023-06-10T19:52:44;4.88;;;3.53;;
4428;SDS011;2227;47.810;8.810;2023-06-10T19:55:11;5.00;;;3.80;;
4428;SDS011;2227;47.810;8.810;2023-06-10T19:57:40;4.70;;;3.25;;
4428;SDS011;2227;47.810;8.810;2023-06-10T20:00:07;4.70;;;3.35;;
4428;SDS011;2227;47.810;8.810;2023-06-10T20:02:35;3.67;;;2.90;;
4428;SDS011;2227;47.810;8.810;2023-06-10T20:05:01;5.82;;;3.40;;